Time;durP1;ratioP1;P1;durP2;ratioP2;P2;SDS_P1;SDS_P2;PMS_P1;PMS_P2;Temp;Humidity;BMP_temperature;BMP_pressure;BME280_temperature;BME280_humidity;BME280_pressure;Samples;Min_cycle;Max_cycle;Signal;HPM_P1;HPM_P2
2022/01/03 00:01:36;;;;;;;0.80;0.60;;;;;;;;;;4952356;28;20453;-86
2022/01/03 00:04:01;;;;;;;0.80;0.70;;;;;;;;;;4952680;28;20808;-86
2022/01/03 00:06:27;;;;;;;0.80;0.60;;;;;;;;;;4950874;28;20456;-86
2022/01/03 00:08:54;;;;;;;1.07;0.93;;;;;;;;;;4953355;28;20580;-86
2022/01/03 00:11:21;;;;;;;0.80;0.60;;;;;;;;;;4952183;28;20460;-86
2022/01/03 00:13:49;;;;;;;0.80;0.60;;;;;;;;;;4934814;29;20480;-86
2022/01/03 00:16:15;;;;;;;1.20;1.10;;;;;;;;;;4946406;28;20990;-86
2022/01/03 00:18:41;;;;;;;0.80;0.60;;;;;;;;;;4953475;28;20483;-86
2022/01/03 00:21:10;;;;;;;2.23;1.20;;;;;;;;;;4947049;28;20941;-87
2022/01/03 00:23:38;;;;;;;0.80;0.60;;;;;;;;;;4953334;28;20457;-87
2022/01/03 00:26:04;;;;;;;1.10;0.83;;;;;;;;;;4952888;28;20442;-86
2022/01/03 00:28:32;;;;;;;0.80;0.60;;;;;;;;;;4935303;28;20497;-83
2022/01/03 00:30:59;;;;;;;0.80;0.60;;;;;;;;;;4935117;28;20446;-84
2022/01/03 00:33:26;;;;;;;0.80;0.60;;;;;;;;;;4952452;28;20581;-84
2022/01/03 00:35:59;;;;;;;0.97;0.90;;;;;;;;;;4952000;28;20537;-83
2022/01/03 00:38:25;;;;;;;0.90;0.80;;;;;;;;;;4952279;28;20473;-83
2022/01/03 00:40:52;;;;;;;1.57;1.47;;;;;;;;;;4952019;28;20442;-83
2022/01/03 00:43:18;;;;;;;0.80;0.70;;;;;;;;;;4925735;29;20452;-84
2022/01/03 00:45:44;;;;;;;1.43;1.33;;;;;;;;;;4942147;28;20502;-83
2022/01/03 00:48:11;;;;;;;0.80;0.70;;;;;;;;;;4945267;28;20485;-86
2022/01/03 00:50:37;;;;;;;0.97;0.87;;;;;;;;;;4934566;28;20803;-86
2022/01/03 00:53:03;;;;;;;0.80;0.70;;;;;;;;;;4951783;28;20462;-86
2022/01/03 00:55:29;;;;;;;0.80;0.60;;;;;;;;;;4955002;28;20439;-86
2022/01/03 00:58:08;;;;;;;0.80;0.70;;;;;;;;;;4941187;28;20442;-86
2022/01/03 01:00:40;;;;;;;1.10;1.00;;;;;;;;;;4928154;28;20438;-86
2022/01/03 01:03:10;;;;;;;0.80;0.70;;;;;;;;;;4942941;28;20449;-86
2022/01/03 01:05:38;;;;;;;2.73;1.90;;;;;;;;;;4934378;28;20449;-86
2022/01/03 01:08:05;;;;;;;0.80;0.80;;;;;;;;;;4949849;28;20480;-87
2022/01/03 01:10:37;;;;;;;1.00;0.70;;;;;;;;;;4934466;28;20486;-86
2022/01/03 01:13:04;;;;;;;0.80;0.60;;;;;;;;;;4931852;28;20442;-86
2022/01/03 01:15:30;;;;;;;0.80;0.60;;;;;;;;;;4940979;28;20521;-86
2022/01/03 01:17:57;;;;;;;0.90;0.80;;;;;;;;;;4945759;28;20808;-84
2022/01/03 01:20:24;;;;;;;0.80;0.70;;;;;;;;;;4952196;28;20448;-83
2022/01/03 01:22:50;;;;;;;0.90;0.70;;;;;;;;;;4933784;28;20462;-86
2022/01/03 01:27:49;;;;;;;1.10;1.00;;;8.30;99.90;;;;;;4951116;28;20977;-83
2022/01/03 01:30:20;;;;;;;0.80;0.70;;;8.20;99.90;;;;;;4948417;28;20444;-84
2022/01/03 01:33:06;;;;;;;0.80;0.60;;;8.20;99.90;;;;;;4951422;28;20457;-84
2022/01/03 01:35:48;;;;;;;2.97;1.43;;;8.20;99.90;;;;;;4950897;28;21243;-85
2022/01/03 01:38:28;;;;;;;0.80;0.60;;;8.20;99.90;;;;;;4945761;28;20935;-84
2022/01/03 01:41:00;;;;;;;0.90;0.80;;;8.20;99.90;;;;;;4948607;28;20466;-82
2022/01/03 01:43:41;;;;;;;0.80;0.67;;;8.20;99.90;;;;;;4928570;29;20449;-84
2022/01/03 01:46:11;;;;;;;1.00;0.90;;;8.20;99.90;;;;;;4931918;28;20501;-84
2022/01/03 01:48:38;;;;;;;1.03;0.93;;;8.20;99.90;;;;;;4947640;28;20482;-84
2022/01/03 01:51:06;;;;;;;4.40;1.67;;;8.20;99.90;;;;;;4953411;28;20453;-84
2022/01/03 01:53:35;;;;;;;0.80;0.70;;;8.20;99.90;;;;;;4944054;28;20449;-85
2022/01/03 01:56:04;;;;;;;2.80;1.47;;;8.20;99.90;;;;;;4953049;28;20943;-85
2022/01/03 01:58:44;;;;;;;0.80;0.70;;;8.20;99.90;;;;;;4937789;29;20525;-84
2022/01/03 02:01:12;;;;;;;2.30;2.20;;;8.30;99.90;;;;;;4939599;29;20443;-84
2022/01/03 02:04:01;;;;;;;0.80;0.60;;;8.20;99.90;;;;;;4953790;28;20950;-85
2022/01/03 02:06:44;;;;;;;0.80;0.60;;;8.20;99.90;;;;;;4949259;28;20438;-85
2022/01/03 02:09:21;;;;;;;0.80;0.60;;;8.20;99.90;;;;;;4936619;28;20501;-85
2022/01/03 02:11:51;;;;;;;1.33;1.23;;;8.20;99.90;;;;;;4947558;28;20445;-84
2022/01/03 02:14:18;;;;;;;1.27;1.17;;;8.20;99.90;;;;;;4943334;28;20452;-85
2022/01/03 02:16:43;;;;;;;0.80;0.60;;;8.20;99.90;;;;;;4937829;28;20434;-85
2022/01/03 02:19:10;;;;;;;0.80;0.60;;;8.00;99.90;;;;;;4953556;28;20464;-85
2022/01/03 02:21:36;;;;;;;7.40;1.17;;;8.10;99.90;;;;;;4931207;29;20187;-85
2022/01/03 02:24:03;;;;;;;0.80;0.60;;;8.00;99.90;;;;;;4953258;28;20460;-86
2022/01/03 02:26:29;;;;;;;0.80;0.70;;;7.90;99.90;;;;;;4948968;28;20973;-85
2022/01/03 02:28:54;;;;;;;0.80;0.60;;;8.00;99.90;;;;;;4954148;28;20498;-84
2022/01/03 02:31:22;;;;;;;1.07;0.97;;;7.90;99.90;;;;;;4954481;28;20186;-85
2022/01/03 02:33:48;;;;;;;0.80;0.60;;;7.90;99.90;;;;;;4936642;28;20285;-85
2022/01/03 02:36:15;;;;;;;0.87;0.80;;;7.90;99.90;;;;;;4937034;28;20450;-85
2022/01/03 02:38:41;;;;;;;0.80;0.60;;;7.90;99.90;;;;;;4936916;28;20456;-85
2022/01/03 02:41:07;;;;;;;0.80;0.60;;;7.80;99.90;;;;;;4947881;28;20426;-85
2022/01/03 02:43:32;;;;;;;0.80;0.60;;;7.90;99.90;;;;;;4935774;28;20492;-85
2022/01/03 02:45:58;;;;;;;0.80;0.60;;;7.90;99.90;;;;;;4953546;28;20194;-84
2022/01/03 02:48:25;;;;;;;0.80;0.60;;;7.80;99.90;;;;;;4935187;29;20230;-84
2022/01/03 02:50:51;;;;;;;0.80;0.60;;;7.80;99.90;;;;;;4950517;28;20891;-85
2022/01/03 02:53:16;;;;;;;0.80;0.60;;;7.80;99.90;;;;;;4940801;28;20444;-85
2022/01/03 02:55:42;;;;;;;0.80;0.60;;;7.80;99.90;;;;;;4953338;28;20198;-85
2022/01/03 02:58:08;;;;;;;0.80;0.63;;;7.80;99.90;;;;;;4954004;28;20190;-85
2022/01/03 03:00:44;;;;;;;0.80;0.60;;;7.80;99.90;;;;;;4953878;28;20438;-85
2022/01/03 03:03:09;;;;;;;0.80;0.60;;;7.80;99.90;;;;;;4953106;28;20186;-84
2022/01/03 03:05:35;;;;;;;0.80;0.60;;;7.80;99.90;;;;;;4953677;28;20438;-85
2022/01/03 03:08:00;;;;;;;0.80;0.60;;;7.80;99.90;;;;;;4954268;28;20232;-84
2022/01/03 03:10:26;;;;;;;0.80;0.60;;;7.70;99.90;;;;;;4928629;29;20223;-85
2022/01/03 03:12:52;;;;;;;0.80;0.60;;;7.70;99.90;;;;;;4951716;28;20897;-84
2022/01/03 03:15:18;;;;;;;0.80;0.80;;;7.70;99.90;;;;;;4949034;28;20191;-84
2022/01/03 03:17:45;;;;;;;0.80;0.80;;;7.70;99.90;;;;;;4945189;28;20442;-84
2022/01/03 03:20:18;;;;;;;0.80;0.60;;;7.80;99.90;;;;;;4953332;28;20230;-84
2022/01/03 03:22:49;;;;;;;0.80;0.60;;;7.70;99.90;;;;;;4945422;28;20939;-84
2022/01/03 03:25:21;;;;;;;0.80;0.67;;;7.70;99.90;;;;;;4948855;28;20966;-85
2022/01/03 03:27:51;;;;;;;0.80;0.60;;;7.70;99.90;;;;;;4942564;28;20486;-84
2022/01/03 03:30:25;;;;;;;0.80;0.60;;;7.70;99.90;;;;;;4935856;28;20450;-85
2022/01/03 03:32:53;;;;;;;0.80;0.60;;;7.70;99.90;;;;;;4952536;28;20437;-85
2022/01/03 03:35:20;;;;;;;0.80;0.70;;;7.70;99.90;;;;;;4937702;28;20445;-85
2022/01/03 03:37:46;;;;;;;0.80;0.60;;;7.70;99.90;;;;;;4947869;28;20942;-85
2022/01/03 03:40:12;;;;;;;1.00;0.90;;;7.70;99.90;;;;;;4953005;28;20629;-85
2022/01/03 03:42:39;;;;;;;0.80;0.60;;;7.60;99.90;;;;;;4940311;28;20682;-85
2022/01/03 03:45:05;;;;;;;0.80;0.60;;;7.60;99.90;;;;;;4938100;28;20577;-84
2022/01/03 03:47:32;;;;;;;0.80;0.60;;;7.60;99.90;;;;;;4954698;28;20547;-84
2022/01/03 03:49:57;;;;;;;0.80;0.80;;;7.60;99.90;;;;;;4955124;28;20459;-84
2022/01/03 03:52:23;;;;;;;0.80;0.60;;;7.60;99.90;;;;;;4947783;28;20438;-83
2022/01/03 03:54:49;;;;;;;0.80;0.70;;;7.60;99.90;;;;;;4953266;28;20189;-84
2022/01/03 03:57:14;;;;;;;0.80;0.60;;;7.60;99.90;;;;;;4935399;29;20274;-84
2022/01/03 03:59:40;;;;;;;0.80;0.60;;;7.60;99.90;;;;;;4929409;28;20277;-85
2022/01/03 04:02:07;;;;;;;0.80;0.60;;;7.60;99.90;;;;;;4940477;28;20289;-84
2022/01/03 04:04:33;;;;;;;0.80;0.60;;;7.60;99.90;;;;;;4943157;28;20191;-84
2022/01/03 04:06:58;;;;;;;0.80;0.70;;;7.70;99.90;;;;;;4934805;29;20443;-85
2022/01/03 04:09:24;;;;;;;0.80;0.60;;;7.70;99.90;;;;;;4952597;28;20233;-84
2022/01/03 04:11:50;;;;;;;1.10;1.00;;;7.70;99.90;;;;;;4952592;28;20189;-85
2022/01/03 04:14:15;;;;;;;0.80;0.70;;;7.70;99.90;;;;;;4932641;29;20186;-84
2022/01/03 04:16:41;;;;;;;1.10;0.93;;;7.70;99.90;;;;;;4952555;28;20187;-85
2022/01/03 04:19:07;;;;;;;1.00;0.90;;;7.70;99.90;;;;;;4954313;28;20191;-84
2022/01/03 04:21:32;;;;;;;0.80;0.60;;;7.70;99.90;;;;;;4950723;28;20221;-85
2022/01/03 04:23:58;;;;;;;0.90;0.80;;;7.70;99.90;;;;;;4927976;28;20187;-85
2022/01/03 04:26:24;;;;;;;0.80;0.60;;;7.70;99.90;;;;;;4951919;28;20218;-85
2022/01/03 04:28:50;;;;;;;0.80;0.73;;;7.70;99.90;;;;;;4951816;28;20242;-85
2022/01/03 04:31:16;;;;;;;0.80;0.60;;;7.70;99.90;;;;;;4944066;28;21048;-85
2022/01/03 04:33:42;;;;;;;2.50;2.23;;;7.80;99.90;;;;;;4952002;28;20194;-85
2022/01/03 04:36:09;;;;;;;0.80;0.60;;;7.70;99.90;;;;;;4933706;28;20277;-84
2022/01/03 04:38:35;;;;;;;0.80;0.70;;;7.70;99.90;;;;;;4951148;28;20453;-86
2022/01/03 04:41:01;;;;;;;0.80;0.60;;;7.80;99.90;;;;;;4951014;28;20541;-86
2022/01/03 04:43:27;;;;;;;0.80;0.67;;;7.80;99.90;;;;;;4932687;29;20451;-85
2022/01/03 04:45:55;;;;;;;0.80;0.70;;;7.80;99.90;;;;;;4951097;28;21001;-86
2022/01/03 04:48:20;;;;;;;0.80;0.60;;;7.80;99.90;;;;;;4949902;28;20257;-86
2022/01/03 04:50:46;;;;;;;0.80;0.60;;;7.80;99.90;;;;;;4950595;28;20457;-85
2022/01/03 04:53:11;;;;;;;0.80;0.60;;;7.80;99.90;;;;;;4951893;28;20195;-85
2022/01/03 04:55:37;;;;;;;0.80;0.70;;;7.80;99.90;;;;;;4948972;28;20178;-86
2022/01/03 04:58:02;;;;;;;0.80;0.60;;;7.80;99.90;;;;;;4952811;28;20213;-86
2022/01/03 05:00:28;;;;;;;0.80;0.70;;;7.80;99.90;;;;;;4934608;29;20248;-86
2022/01/03 05:02:53;;;;;;;0.80;0.60;;;7.80;99.90;;;;;;4932405;29;20190;-86
2022/01/03 05:05:19;;;;;;;1.17;1.07;;;7.80;99.90;;;;;;4946757;28;20179;-86
2022/01/03 05:07:46;;;;;;;1.17;1.07;;;7.80;99.90;;;;;;4948696;28;20694;-86
2022/01/03 05:10:11;;;;;;;0.90;0.80;;;7.80;99.90;;;;;;4928392;29;20317;-86
2022/01/03 05:12:37;;;;;;;0.80;0.60;;;7.90;99.90;;;;;;4926708;29;21260;-86
2022/01/03 05:15:03;;;;;;;1.23;1.13;;;7.90;99.90;;;;;;4950442;28;20213;-86
2022/01/03 05:17:29;;;;;;;0.80;0.60;;;7.90;99.90;;;;;;4949009;28;20686;-86
2022/01/03 05:19:55;;;;;;;0.80;0.60;;;7.90;99.90;;;;;;4927943;28;20474;-87
2022/01/03 05:22:21;;;;;;;0.80;0.60;;;7.90;99.90;;;;;;4950325;28;20643;-86
2022/01/03 05:24:46;;;;;;;0.80;0.60;;;7.90;99.90;;;;;;4946367;28;20454;-86
2022/01/03 05:27:12;;;;;;;0.80;0.60;;;7.90;99.90;;;;;;4952279;28;20693;-85
2022/01/03 05:29:37;;;;;;;0.80;0.50;;;7.90;99.90;;;;;;4934161;29;20249;-86
2022/01/03 05:32:03;;;;;;;0.80;0.60;;;7.90;99.90;;;;;;4950250;28;20266;-85
2022/01/03 05:34:29;;;;;;;0.80;0.60;;;7.90;99.90;;;;;;4944684;28;20230;-86
2022/01/03 05:36:54;;;;;;;0.80;0.70;;;7.90;99.90;;;;;;4944464;28;20416;-86
2022/01/03 05:39:20;;;;;;;1.53;1.33;;;7.90;99.90;;;;;;4946322;28;20665;-86
2022/01/03 05:41:45;;;;;;;0.80;0.60;;;7.90;99.90;;;;;;4927328;29;20193;-86
2022/01/03 05:44:11;;;;;;;1.83;1.10;;;7.90;99.90;;;;;;4931264;29;20273;-86
2022/01/03 05:46:37;;;;;;;0.80;0.60;;;7.90;99.90;;;;;;4950979;28;20205;-86
2022/01/03 05:49:03;;;;;;;0.80;0.60;;;7.90;99.90;;;;;;4949821;28;20498;-85
2022/01/03 05:51:28;;;;;;;1.00;0.80;;;8.00;99.90;;;;;;4951558;28;20655;-85
2022/01/03 05:53:54;;;;;;;0.80;0.70;;;7.90;99.90;;;;;;4950189;28;20257;-86
2022/01/03 05:56:20;;;;;;;0.80;0.70;;;8.00;99.90;;;;;;4946637;28;20187;-86
2022/01/03 05:58:46;;;;;;;1.57;1.47;;;8.00;99.90;;;;;;4951002;28;20191;-86
2022/01/03 06:01:12;;;;;;;0.80;0.60;;;8.00;99.90;;;;;;4946833;28;20446;-86
2022/01/03 06:03:39;;;;;;;4.17;1.27;;;8.00;99.90;;;;;;4949194;28;20270;-86
2022/01/03 06:06:19;;;;;;;0.80;0.60;;;8.00;99.90;;;;;;4930306;28;20199;-86
2022/01/03 06:08:45;;;;;;;0.80;0.60;;;8.00;99.90;;;;;;4944588;28;20589;-86
2022/01/03 06:11:11;;;;;;;0.80;0.60;;;8.10;99.90;;;;;;4929073;28;21220;-85
2022/01/03 06:13:37;;;;;;;0.80;0.70;;;8.00;99.90;;;;;;4948888;28;20193;-86
2022/01/03 06:16:02;;;;;;;0.80;0.60;;;8.10;99.90;;;;;;4948661;28;20203;-86
2022/01/03 06:18:28;;;;;;;0.90;0.80;;;8.00;99.90;;;;;;4946089;28;20226;-86
2022/01/03 06:20:54;;;;;;;0.80;0.60;;;8.00;99.90;;;;;;4944030;28;20190;-86
2022/01/03 06:23:20;;;;;;;0.90;0.80;;;8.00;99.90;;;;;;4955751;28;20190;-86
2022/01/03 06:25:46;;;;;;;16.30;1.97;;;8.10;99.90;;;;;;4940942;28;21261;-87
2022/01/03 06:28:12;;;;;;;1.37;1.27;;;8.00;99.90;;;;;;4928751;28;20536;-86
2022/01/03 06:30:41;;;;;;;0.80;0.60;;;8.00;99.90;;;;;;4944145;28;20537;-87
2022/01/03 06:33:08;;;;;;;0.80;0.60;;;8.10;99.90;;;;;;4929464;28;20466;-86
2022/01/03 06:35:34;;;;;;;0.80;0.70;;;8.10;99.90;;;;;;4922871;28;20435;-86
2022/01/03 06:38:02;;;;;;;0.80;0.60;;;8.10;99.90;;;;;;4946684;28;20992;-86
2022/01/03 06:40:28;;;;;;;0.80;0.60;;;8.10;99.90;;;;;;4953006;28;21104;-86
2022/01/03 06:42:54;;;;;;;0.80;0.60;;;8.10;99.90;;;;;;4948165;28;20449;-86
2022/01/03 06:45:21;;;;;;;0.80;0.60;;;;;;;;;;4956845;28;20201;-86
2022/01/03 06:47:47;;;;;;;0.80;0.70;;;8.00;99.90;;;;;;4957558;28;20883;-86
2022/01/03 06:50:13;;;;;;;0.80;0.60;;;8.10;99.90;;;;;;4931002;29;20442;-86
2022/01/03 06:52:38;;;;;;;0.80;0.80;;;8.10;99.90;;;;;;4946344;28;20446;-86
2022/01/03 06:55:05;;;;;;;0.90;0.80;;;8.10;99.90;;;;;;4933519;29;20190;-86
2022/01/03 06:57:31;;;;;;;6.13;1.63;;;8.10;99.90;;;;;;4952896;28;20241;-86
2022/01/03 06:59:56;;;;;;;0.80;0.70;;;8.10;99.90;;;;;;4947289;28;20442;-86
2022/01/03 07:02:22;;;;;;;0.80;0.60;;;8.10;99.90;;;;;;4930122;28;20194;-86
2022/01/03 07:04:48;;;;;;;0.80;0.60;;;8.10;99.90;;;;;;4934867;29;20187;-86
2022/01/03 07:07:14;;;;;;;0.80;0.67;;;8.10;99.90;;;;;;4933018;28;20197;-86
2022/01/03 07:09:39;;;;;;;0.80;0.60;;;8.20;99.90;;;;;;4932484;29;20466;-86
2022/01/03 07:12:06;;;;;;;0.80;0.60;;;8.10;99.90;;;;;;4944617;28;20193;-86
2022/01/03 07:19:50;;;;;;;0.93;0.83;;;8.10;99.90;;;;;;4950910;28;20294;-86
2022/01/03 07:22:16;;;;;;;1.40;0.83;;;8.10;99.90;;;;;;4929793;28;20709;-86
2022/01/03 07:24:42;;;;;;;1.10;0.93;;;8.20;99.90;;;;;;4927568;28;20448;-85
2022/01/03 07:27:10;;;;;;;0.80;0.60;;;8.20;99.90;;;;;;4929447;29;20463;-86
2022/01/03 07:29:36;;;;;;;0.80;0.60;;;8.20;99.90;;;;;;4929061;29;20588;-87
2022/01/03 07:32:03;;;;;;;0.80;0.60;;;8.20;99.90;;;;;;4931785;29;20493;-85
2022/01/03 07:34:29;;;;;;;0.80;0.60;;;8.20;99.90;;;;;;4944758;28;21094;-85
2022/01/03 07:36:54;;;;;;;0.80;0.60;;;8.20;99.90;;;;;;4926148;28;20442;-85
2022/01/03 07:39:20;;;;;;;1.10;1.00;;;8.20;99.90;;;;;;4952043;28;20271;-85
2022/01/03 07:41:46;;;;;;;1.23;1.13;;;8.20;99.90;;;;;;4944724;28;20664;-84
2022/01/03 07:44:12;;;;;;;2.60;0.93;;;8.20;99.90;;;;;;4940709;28;20486;-85
2022/01/03 07:46:37;;;;;;;0.80;0.60;;;8.20;99.90;;;;;;4950628;28;20561;-85
2022/01/03 07:49:04;;;;;;;0.80;0.53;;;8.20;99.90;;;;;;4951029;28;20585;-86
2022/01/03 07:51:30;;;;;;;0.80;0.60;;;8.20;99.90;;;;;;4920628;28;20222;-86
2022/01/03 07:53:55;;;;;;;1.10;0.97;;;8.20;99.90;;;;;;4924229;29;20493;-86
2022/01/03 07:56:21;;;;;;;0.90;0.70;;;8.20;99.90;;;;;;4945760;28;20431;-86
2022/01/03 07:58:47;;;;;;;0.80;0.60;;;8.20;99.90;;;;;;4951393;28;20203;-86
2022/01/03 08:01:13;;;;;;;0.83;0.70;;;8.20;99.90;;;;;;4936878;28;20193;-85
2022/01/03 08:03:39;;;;;;;0.80;0.60;;;8.20;99.90;;;;;;4946024;28;20533;-86
2022/01/03 08:06:07;;;;;;;0.80;0.70;;;8.20;99.90;;;;;;4924279;29;20871;-86
2022/01/03 08:08:33;;;;;;;0.80;0.60;;;8.20;99.90;;;;;;4946192;28;20875;-86
2022/01/03 08:10:59;;;;;;;0.80;0.60;;;8.10;99.90;;;;;;4926632;29;20436;-86
2022/01/03 08:13:24;;;;;;;0.80;0.60;;;8.20;99.90;;;;;;4948829;28;20461;-85
2022/01/03 08:15:50;;;;;;;0.80;0.60;;;8.20;99.90;;;;;;4935404;29;20187;-86
2022/01/03 08:18:15;;;;;;;0.80;0.60;;;8.10;99.90;;;;;;4944224;28;20233;-86
2022/01/03 08:20:41;;;;;;;0.80;0.70;;;8.20;99.90;;;;;;4952351;28;20190;-86
2022/01/03 08:23:06;;;;;;;0.80;0.60;;;8.20;99.90;;;;;;4934353;28;20229;-86
2022/01/03 08:25:37;;;;;;;0.80;0.60;;;8.10;99.90;;;;;;4940680;28;20417;-85
2022/01/03 08:28:09;;;;;;;0.80;0.60;;;8.10;99.90;;;;;;4930693;28;20693;-86
2022/01/03 08:30:36;;;;;;;4.27;1.80;;;8.20;99.90;;;;;;4932599;29;20450;-86
2022/01/03 08:33:05;;;;;;;0.90;0.80;;;8.20;99.90;;;;;;4949806;28;20512;-87
2022/01/03 08:35:31;;;;;;;1.63;1.13;;;8.20;99.90;;;;;;4928479;28;20488;-85
2022/01/03 08:37:57;;;;;;;0.80;0.60;;;8.20;99.90;;;;;;4950081;28;20869;-85
2022/01/03 08:40:23;;;;;;;0.80;0.60;;;8.20;99.90;;;;;;4924615;28;20470;-87
2022/01/03 08:42:48;;;;;;;0.80;0.60;;;8.20;99.90;;;;;;4930321;29;20477;-88
2022/01/03 08:45:14;;;;;;;0.80;0.60;;;8.20;99.90;;;;;;4944625;28;20600;-88
2022/01/03 08:47:40;;;;;;;6.70;1.67;;;8.20;99.90;;;;;;4940457;28;20218;-91
2022/01/03 08:50:07;;;;;;;0.80;0.60;;;8.20;99.90;;;;;;4949064;28;20241;-90
2022/01/03 08:52:33;;;;;;;0.80;0.60;;;8.20;99.90;;;;;;4940057;28;20193;-90
2022/01/03 08:54:58;;;;;;;0.80;0.60;;;8.20;99.90;;;;;;4953103;28;20460;-93
2022/01/03 08:57:24;;;;;;;2.47;2.27;;;8.30;99.90;;;;;;4926824;28;20202;-91
2022/01/03 08:59:51;;;;;;;0.80;0.60;;;8.30;99.90;;;;;;4930879;29;20623;-92
2022/01/03 09:02:17;;;;;;;2.30;2.10;;;8.20;99.90;;;;;;4950783;28;20195;-91
2022/01/03 09:04:44;;;;;;;1.57;1.20;;;8.20;99.90;;;;;;4952235;28;20541;-93
2022/01/03 09:07:10;;;;;;;0.80;0.60;;;8.30;99.90;;;;;;4963331;28;20504;-92
2022/01/03 09:09:36;;;;;;;0.80;0.60;;;8.30;99.90;;;;;;4934699;29;20489;-93
2022/01/03 09:12:03;;;;;;;0.80;0.60;;;8.30;99.90;;;;;;4955080;28;20434;-93
2022/01/03 09:14:29;;;;;;;0.80;0.60;;;8.40;99.90;;;;;;4932659;28;20207;-92
2022/01/03 09:16:54;;;;;;;1.20;0.70;;;8.40;99.90;;;;;;4954278;28;20434;-91
2022/01/03 09:19:20;;;;;;;0.80;0.60;;;8.40;99.90;;;;;;4954267;28;20183;-91
2022/01/03 09:21:46;;;;;;;0.80;0.60;;;8.40;99.90;;;;;;4956411;28;20556;-93
2022/01/03 09:24:29;;;;;;;0.80;0.60;;;8.40;99.90;;;;;;4954039;28;20541;-93
2022/01/03 09:29:40;;;;;;;0.80;0.60;;;8.50;99.90;;;;;;4953357;29;20544;-93
2022/01/03 09:32:06;;;;;;;0.80;0.60;;;8.50;99.90;;;;;;4950192;28;20438;-93
2022/01/03 09:34:32;;;;;;;0.80;0.60;;;8.50;99.90;;;;;;4961577;28;20461;-95
2022/01/03 09:36:58;;;;;;;0.80;0.60;;;8.50;99.90;;;;;;4936475;28;20497;-83
2022/01/03 09:39:23;;;;;;;0.80;0.57;;;8.50;99.90;;;;;;4951391;28;20213;-82
2022/01/03 09:41:57;;;;;;;0.80;0.70;;;8.50;99.90;;;;;;4957252;28;20665;-90
2022/01/03 09:44:29;;;;;;;0.80;0.60;;;8.50;99.90;;;;;;4945628;28;20285;-88
2022/01/03 09:46:58;;;;;;;0.80;0.60;;;8.60;99.90;;;;;;4931571;28;21139;-87
2022/01/03 09:49:25;;;;;;;0.80;0.70;;;8.60;99.90;;;;;;4930141;29;20493;-88
2022/01/03 09:51:52;;;;;;;0.80;0.60;;;8.60;99.90;;;;;;4936396;28;20442;-88
2022/01/03 09:54:20;;;;;;;0.87;0.73;;;8.70;99.90;;;;;;4952942;28;20454;-86
2022/01/03 09:56:46;;;;;;;0.80;0.60;;;8.70;99.90;;;;;;4951345;28;20429;-90
2022/01/03 09:59:12;;;;;;;0.80;0.60;;;8.70;99.90;;;;;;4931745;29;21033;-89
2022/01/03 10:01:37;;;;;;;0.80;0.60;;;8.70;99.90;;;;;;4947983;28;20187;-88
2022/01/03 10:04:04;;;;;;;0.80;0.60;;;8.70;99.90;;;;;;4932590;29;20446;-87
2022/01/03 10:06:31;;;;;;;0.80;0.60;;;8.70;99.90;;;;;;4935057;29;20195;-87
2022/01/03 10:08:57;;;;;;;0.80;0.60;;;8.70;99.90;;;;;;4931414;29;20521;-86
2022/01/03 10:11:23;;;;;;;0.80;0.60;;;8.70;99.90;;;;;;4946924;28;20438;-89
2022/01/03 10:13:50;;;;;;;1.00;0.90;;;8.70;99.90;;;;;;4953100;28;20529;-87
2022/01/03 10:16:16;;;;;;;1.03;0.90;;;8.70;99.90;;;;;;4943452;28;20518;-88
2022/01/03 10:18:44;;;;;;;0.80;0.70;;;8.80;99.90;;;;;;4941450;28;20537;-89
2022/01/03 10:21:10;;;;;;;1.00;0.80;;;8.80;99.90;;;;;;4935665;28;20465;-90
2022/01/03 10:23:36;;;;;;;0.80;0.60;;;9.00;99.90;;;;;;4950277;28;20485;-91
2022/01/03 10:26:20;;;;;;;0.80;0.60;;;9.00;99.90;;;;;;4954104;28;20714;-88
2022/01/03 10:28:46;;;;;;;0.80;0.60;;;8.90;99.90;;;;;;4926701;29;20494;-86
2022/01/03 10:31:22;;;;;;;0.93;0.73;;;8.90;99.90;;;;;;4945152;28;20965;-87
2022/01/03 10:34:05;;;;;;;15.03;1.07;;;8.90;99.90;;;;;;4954399;28;20500;-88
2022/01/03 10:36:33;;;;;;;0.80;0.70;;;8.90;99.90;;;;;;4954108;28;20489;-90
2022/01/03 10:39:10;;;;;;;0.80;0.70;;;8.90;99.90;;;;;;4934726;28;20445;-89
2022/01/03 10:41:35;;;;;;;0.80;0.60;;;8.80;99.90;;;;;;4930203;29;20885;-88
2022/01/03 10:44:01;;;;;;;1.60;1.23;;;8.90;99.90;;;;;;4932427;28;20438;-87
2022/01/03 10:46:33;;;;;;;0.80;0.60;;;8.90;99.90;;;;;;4950991;28;20184;-86
2022/01/03 10:49:13;;;;;;;0.80;0.60;;;8.80;99.90;;;;;;4922186;28;20314;-86
2022/01/03 10:51:40;;;;;;;0.80;0.60;;;8.80;99.90;;;;;;4945755;28;20443;-86
2022/01/03 10:54:11;;;;;;;0.80;0.60;;;8.80;99.90;;;;;;4946003;28;20483;-87
2022/01/03 10:56:39;;;;;;;0.80;0.60;;;8.80;99.90;;;;;;4932578;29;20518;-87
2022/01/03 10:59:14;;;;;;;1.30;0.90;;;8.80;99.90;;;;;;4951850;28;20438;-87
2022/01/03 11:01:41;;;;;;;0.80;0.60;;;8.90;99.90;;;;;;4945702;28;20440;-88
2022/01/03 11:04:07;;;;;;;0.80;0.60;;;8.80;99.90;;;;;;4931996;28;20444;-87
2022/01/03 11:11:48;;;;;;;0.80;0.60;;;9.00;99.90;;;;;;4950723;28;20442;-89
2022/01/03 11:14:33;;;;;;;0.80;0.60;;;8.90;99.90;;;;;;4951920;28;20438;-89
2022/01/03 11:16:59;;;;;;;0.90;0.80;;;8.90;99.90;;;;;;4927961;28;20442;-88
2022/01/03 11:19:38;;;;;;;0.80;0.60;;;8.90;99.90;;;;;;4950855;28;20436;-87
2022/01/03 11:22:04;;;;;;;0.80;0.60;;;8.90;99.90;;;;;;4949843;28;20441;-86
2022/01/03 11:24:30;;;;;;;0.70;0.50;;;8.90;99.90;;;;;;4931056;29;21024;-87
2022/01/03 11:26:56;;;;;;;0.80;0.60;;;8.80;99.90;;;;;;4928935;28;20461;-86
2022/01/03 11:29:22;;;;;;;0.80;0.60;;;8.80;99.90;;;;;;4948404;28;20498;-86
2022/01/03 11:31:53;;;;;;;1.20;1.10;;;8.80;99.90;;;;;;4941370;28;20447;-88
2022/01/03 11:34:25;;;;;;;0.80;0.60;;;8.80;99.90;;;;;;4949905;28;20476;-85
2022/01/03 11:36:52;;;;;;;0.80;0.60;;;8.80;99.90;;;;;;4946621;28;20442;-86
2022/01/03 11:39:21;;;;;;;0.80;0.50;;;8.90;99.90;;;;;;4945066;28;20450;-88
2022/01/03 11:41:47;;;;;;;0.80;0.60;;;9.00;99.90;;;;;;4955538;28;20449;-87
2022/01/03 11:44:15;;;;;;;1.03;0.93;;;9.00;99.90;;;;;;4946543;28;20857;-86
2022/01/03 11:46:43;;;;;;;0.80;0.60;;;9.00;99.90;;;;;;4948161;28;20183;-89
2022/01/03 11:49:09;;;;;;;2.30;1.47;;;9.00;99.90;;;;;;4952103;28;20810;-87
2022/01/03 11:51:36;;;;;;;0.80;0.60;;;9.00;99.90;;;;;;4946791;28;20957;-90
2022/01/03 11:54:03;;;;;;;0.80;0.60;;;9.00;99.90;;;;;;4955766;28;20925;-87
2022/01/03 11:56:30;;;;;;;0.80;0.60;;;9.00;99.90;;;;;;4949774;28;20441;-86
2022/01/03 12:04:34;;;;;;;0.80;0.50;;;9.00;99.90;;;;;;4926402;28;20449;-86
2022/01/03 12:07:15;;;;;;;0.80;0.60;;;9.10;99.90;;;;;;4947431;28;20450;-88
2022/01/03 12:09:47;;;;;;;0.80;0.60;;;9.20;99.90;;;;;;4933288;29;20517;-87
2022/01/03 12:12:34;;;;;;;0.80;0.60;;;9.10;99.90;;;;;;4933732;29;20451;-87
2022/01/03 12:15:02;;;;;;;0.80;0.60;;;9.10;99.90;;;;;;4947108;28;20457;-88
2022/01/03 12:17:46;;;;;;;0.80;0.50;;;9.10;99.90;;;;;;4941878;28;20478;-86
2022/01/03 12:20:12;;;;;;;0.80;0.60;;;9.10;99.90;;;;;;4945645;28;20450;-85
2022/01/03 12:22:48;;;;;;;0.80;0.60;;;9.00;99.90;;;;;;4929480;28;20448;-85
2022/01/03 12:25:29;;;;;;;0.80;0.60;;;8.90;99.90;;;;;;4957293;28;20650;-88
2022/01/03 12:27:57;;;;;;;0.80;0.60;;;8.90;99.90;;;;;;4945428;29;20493;-90
2022/01/03 12:30:25;;;;;;;0.80;0.60;;;8.80;99.90;;;;;;4953202;28;20564;-91
2022/01/03 12:33:07;;;;;;;0.80;0.70;;;8.70;99.90;;;;;;4927458;29;20466;-88
2022/01/03 12:35:34;;;;;;;0.80;0.60;;;8.70;99.90;;;;;;4949630;28;20449;-89
2022/01/03 12:38:03;;;;;;;0.80;0.70;;;8.70;99.90;;;;;;4934116;28;20450;-89
2022/01/03 12:40:34;;;;;;;0.90;0.73;;;8.70;99.90;;;;;;4929589;29;20493;-87
2022/01/03 12:43:11;;;;;;;1.20;1.10;;;8.60;99.90;;;;;;4932746;28;20460;-90
2022/01/03 12:45:36;;;;;;;0.80;0.70;;;8.70;99.90;;;;;;4930505;29;20457;-87
2022/01/03 12:48:08;;;;;;;0.80;0.60;;;8.80;99.90;;;;;;4954176;28;20477;-88
2022/01/03 12:50:53;;;;;;;0.80;0.60;;;8.80;99.90;;;;;;4945306;28;20686;-89
2022/01/03 12:53:27;;;;;;;2.37;1.17;;;8.80;99.90;;;;;;4952252;28;20431;-89
2022/01/03 12:56:07;;;;;;;0.80;0.60;;;8.80;99.90;;;;;;4929933;29;21088;-89
2022/01/03 12:58:32;;;;;;;0.80;0.60;;;8.80;99.90;;;;;;4928404;29;20980;-89
2022/01/03 13:01:05;;;;;;;0.80;0.60;;;8.90;99.90;;;;;;4936487;29;20442;-87
2022/01/03 13:03:42;;;;;;;0.80;0.60;;;8.90;99.90;;;;;;4943549;28;20269;-89
2022/01/03 13:06:10;;;;;;;0.80;0.60;;;8.90;99.90;;;;;;4947381;28;20873;-87
2022/01/03 13:08:39;;;;;;;0.80;0.60;;;8.90;99.90;;;;;;4933172;29;20490;-87
2022/01/03 13:11:11;;;;;;;0.80;0.60;;;8.90;99.90;;;;;;4938979;28;20450;-88
2022/01/03 13:13:38;;;;;;;0.80;0.63;;;8.90;99.90;;;;;;4965735;28;20447;-90
2022/01/03 13:16:22;;;;;;;0.80;0.60;;;8.90;99.90;;;;;;4942223;28;20455;-88
2022/01/03 13:19:01;;;;;;;0.80;0.60;;;8.80;99.90;;;;;;4954257;28;20446;-88
2022/01/03 13:21:29;;;;;;;0.80;0.60;;;8.90;99.90;;;;;;4937457;29;20484;-90
2022/01/03 13:24:00;;;;;;;0.80;0.60;;;8.90;99.90;;;;;;4957637;28;21038;-90
2022/01/03 13:26:28;;;;;;;2.63;2.53;;;8.90;99.90;;;;;;4939492;28;20449;-87
2022/01/03 13:28:59;;;;;;;0.80;0.60;;;8.90;99.90;;;;;;4931504;28;20552;-90
2022/01/03 13:31:26;;;;;;;0.80;0.60;;;8.80;99.90;;;;;;4947911;28;20449;-89
2022/01/03 13:33:55;;;;;;;0.93;0.67;;;8.80;99.90;;;;;;4933947;28;20450;-89